Pender, Nebraska
Current Conditions -  °F | °C
As of 10:15 PM on Wednesday 28 Jan 2015 (Local Time) from KLCG Reporting Station
Haze Haze  
Wind Chill: 27°   Ceiling: 1100
Heat Index: 39°   Visibility: 5mi
Dew Point: 36°   Wind: 31mph
Humidity: 88%   Direction: 340°NNW
Pressure: 29.96"   Gusts: 44mph
Location:  42.11°N, 96.71°W
Report Text: KLCG 290415Z AUTO 34027G38KT 5SM BR OVC011 04/02 A2996 RMK AO2 T00400021
Loading
Personal Weather Stations






























Interactive Weather Map New forecast layout! Learn more

10-Day Weather Forecast

Advertisements
Track Severe Weather on mobile